Weather History for St. Francis, KS

Change the Weather History Date:

Sunday, January 6, 2013

  Actual Average Record
Temperature  
Mean Temperature 28 °F -  
Max Temperature 45 °F 40 °F 45 °F (2013)
Min Temperature 12 °F 12 °F -12 °F (2014)
Degree Days  
Heating Degree Days 36    
Moisture  
Dew Point 19 °F    
Average Humidity 69    
Maximum Humidity 85    
Minimum Humidity 46    
Precipitation  
Precipitation 0.00 in - - ()
Sea Level Pressure  
Sea Level Pressure 30.14 in    
Wind  
Wind Speed 10 mph (SSW)    
Max Wind Speed 20 mph    
Max Gust Speed 21 mph    
Visibility 10 miles    
Events      
Averages and records for this station are not official NWS values.
T = Trace of Precipitation, MM = Missing Value Source: NWS Daily Summary

Daily Weather History Graph

Daily Weather History Graph

Search for Another Location

Airport:

Trip Planner

Search our weather history database for the weather conditions in past years. The results will help you decide how hot, cold, wet, or windy it might be!

Date:

Astronomy

Jan. 06, 2013 Rise Set
Actual Time 8:08 AM CST 5:38 PM CST
Civil Twilight 7:38 AM CST 6:08 PM CST
Nautical Twilight 7:04 AM CST 6:41 PM CST
Astronomical Twilight 6:32 AM CST 7:14 PM CST
Moon 2:25 AM CST (1/6) 1:06 PM CST (1/6)
Length of Visible Light 10h 29m
Length of Day
9h 29m
Waning Crescent, 33% of the Moon is Illuminated
Jan 6
Waning Crescent
Jan 11
New
Jan 18
First Quarter
Jan 26
Full
Feb 3
Last Quarter

Hourly Weather History & Observations

Time (CST) Temp. Windchill Dew Point Humidity Pressure Visibility Wind Dir Wind Speed Gust Speed Precip Events Conditions
12:15 AM 21.6 °F 10.6 °F 15.4 °F 77% 30.31 in 10.0 mi SW 10.4 mph - N/A   Clear
12:35 AM 19.9 °F 7.9 °F 14.9 °F 81% 30.31 in 10.0 mi SW 11.5 mph - N/A   Clear
12:55 AM 19.9 °F 8.6 °F 14.0 °F 78% 30.30 in 10.0 mi SW 10.4 mph - N/A   Clear
1:15 AM 19.9 °F 7.9 °F 13.3 °F 75% 30.30 in 10.0 mi SW 11.5 mph - N/A   Clear
1:35 AM 19.9 °F 7.9 °F 12.7 °F 74% 30.29 in 10.0 mi WSW 11.5 mph - N/A   Clear
1:55 AM 20.1 °F 8.8 °F 12.2 °F 71% 30.29 in 10.0 mi SW 10.4 mph - N/A   Clear
2:15 AM 20.1 °F 8.1 °F 11.8 °F 70% 30.29 in 10.0 mi SW 11.5 mph - N/A   Clear
2:35 AM 19.4 °F 7.9 °F 11.5 °F 71% 30.29 in 10.0 mi WSW 10.4 mph - N/A   Clear
2:55 AM 19.4 °F 6.0 °F 12.2 °F 74% 30.29 in 10.0 mi WSW 13.8 mph - N/A   Clear
3:15 AM 18.5 °F 6.8 °F 11.8 °F 75% 30.30 in 10.0 mi WSW 10.4 mph - N/A   Clear
3:35 AM 17.6 °F 7.3 °F 11.3 °F 76% 30.29 in 10.0 mi WSW 8.1 mph - N/A   Clear
4:15 AM 17.6 °F 4.3 °F 11.5 °F 77% 30.28 in 10.0 mi SW 12.7 mph - N/A   Clear
4:35 AM 17.2 °F 4.5 °F 11.1 °F 77% 30.28 in 10.0 mi WSW 11.5 mph - N/A   Clear
4:55 AM 16.7 °F 3.8 °F 10.9 °F 78% 30.28 in 10.0 mi SW 11.5 mph - N/A   Clear
5:15 AM 17.1 °F 3.6 °F 10.9 °F 77% 30.28 in 10.0 mi SW 12.7 mph - N/A   Clear
5:55 AM 16.7 °F 5.3 °F 10.4 °F 76% 30.28 in 10.0 mi WSW 9.2 mph - N/A   Clear
6:15 AM 15.8 °F 3.4 °F 10.0 °F 78% 30.28 in 10.0 mi WSW 10.4 mph - N/A   Clear
6:35 AM 15.8 °F 2.1 °F 10.0 °F 78% 30.27 in 10.0 mi SW 12.7 mph - N/A   Clear
6:55 AM 16.2 °F 3.2 °F 10.2 °F 77% 30.27 in 10.0 mi WSW 11.5 mph - N/A   Clear
7:15 AM 14.7 °F 7.3 °F 9.3 °F 79% 30.27 in 10.0 mi WSW 4.6 mph - N/A   Clear
7:35 AM 14.7 °F 7.3 °F 10.0 °F 82% 30.26 in 10.0 mi SW 4.6 mph - N/A   Clear
8:15 AM 13.6 °F 7.7 °F 9.1 °F 82% 30.26 in 10.0 mi WSW 3.5 mph - N/A   Clear
8:35 AM 12.2 °F 6.1 °F 8.2 °F 84% 30.26 in 10.0 mi SW 3.5 mph - N/A   Clear
8:55 AM 12.2 °F 6.1 °F 8.4 °F 85% 30.26 in 10.0 mi SW 3.5 mph - N/A   Clear
9:15 AM 13.3 °F 7.3 °F 8.6 °F 82% 30.26 in 10.0 mi SW 3.5 mph - N/A   Clear
9:35 AM 15.1 °F 7.7 °F 9.5 °F 79% 30.26 in 10.0 mi SW 4.6 mph - N/A   Clear
9:55 AM 16.7 °F 11.2 °F 10.4 °F 76% 30.26 in 10.0 mi SW 3.5 mph - N/A   Clear
10:15 AM 18.5 °F 11.7 °F 11.1 °F 73% 30.26 in 10.0 mi SW 4.6 mph - N/A   Clear
10:35 AM 21.2 °F 14.9 °F 13.1 °F 71% 30.26 in 10.0 mi SW 4.6 mph - N/A   Clear
11:15 AM 25.2 °F 19.5 °F 15.8 °F 68% 30.24 in 10.0 mi WSW 4.6 mph - N/A   Clear
11:35 AM 28.2 °F 23.1 °F 18.3 °F 66% 30.23 in 10.0 mi SSW 4.6 mph - N/A   Clear
11:55 AM 32.5 °F 29.3 °F 21.0 °F 63% 30.21 in 10.0 mi WSW 3.5 mph - N/A   Clear
12:15 PM 40.5 °F 34.6 °F 24.8 °F 54% 30.19 in 10.0 mi South 9.2 mph - N/A   Clear
12:35 PM 41.0 °F 34.3 °F 25.5 °F 54% 30.18 in 10.0 mi South 11.5 mph - N/A   Clear
12:55 PM 41.5 °F 34.6 °F 26.2 °F 55% 30.16 in 10.0 mi South 12.7 mph - N/A   Clear
1:15 PM 42.4 °F 36.1 °F 26.6 °F 54% 30.14 in 10.0 mi South 11.5 mph - N/A   Clear
1:35 PM 43.2 °F 36.6 °F 26.2 °F 51% 30.12 in 10.0 mi South 12.7 mph - N/A   Clear
1:55 PM 43.3 °F 36.5 °F 26.1 °F 51% 30.10 in 10.0 mi South 13.8 mph - N/A   Clear
2:15 PM 44.1 °F 36.5 °F 25.3 °F 48% 30.09 in 10.0 mi South 17.3 mph - N/A   Clear
2:35 PM 44.8 °F 37.7 °F 25.0 °F 46% 30.07 in 10.0 mi South 16.1 mph 20.7 mph N/A   Clear
2:55 PM 45.1 °F 38.4 °F 25.2 °F 46% 30.06 in 10.0 mi South 15.0 mph - N/A   Clear
3:15 PM 45.5 °F 39.9 °F 25.9 °F 46% 30.05 in 10.0 mi South 11.5 mph - N/A   Clear
3:35 PM 45.7 °F 41.0 °F 25.7 °F 46% 30.04 in 10.0 mi South 9.2 mph - N/A   Clear
3:55 PM 45.5 °F 40.8 °F 26.1 °F 47% 30.04 in 10.0 mi South 9.2 mph - N/A   Clear
4:15 PM 44.6 °F 38.4 °F 26.1 °F 48% 30.03 in 10.0 mi SSE 12.7 mph - N/A   Clear
4:55 PM 42.1 °F 35.2 °F 27.1 °F 55% 30.01 in 10.0 mi SSE 12.7 mph - N/A   Clear
5:15 PM 41.2 °F 33.4 °F 26.6 °F 56% 30.00 in 10.0 mi SSE 15.0 mph - N/A   Clear
5:35 PM 40.3 °F 31.3 °F 26.4 °F 58% 29.99 in 10.0 mi South 18.4 mph - N/A   Clear
5:55 PM 39.2 °F 29.8 °F 26.4 °F 60% 29.98 in 10.0 mi South 18.4 mph - N/A   Clear
6:15 PM 38.3 °F 28.4 °F 26.4 °F 62% 29.98 in 10.0 mi South 19.6 mph - N/A   Clear
6:55 PM 36.3 °F 29.5 °F 26.4 °F 67% 29.98 in 10.0 mi SSW 9.2 mph - N/A   Clear
7:15 PM 34.0 °F 26.0 °F 25.9 °F 72% 29.98 in 10.0 mi SSW 10.4 mph - N/A   Clear
7:35 PM 34.0 °F 25.5 °F 25.7 °F 72% 29.98 in 10.0 mi SSW 11.5 mph - N/A   Clear
7:55 PM 32.7 °F 23.9 °F 25.3 °F 74% 29.98 in 10.0 mi SSW 11.5 mph - N/A   Clear
8:15 PM 32.9 °F 25.3 °F 25.3 °F 74% 29.97 in 10.0 mi SSW 9.2 mph - N/A   Clear
8:35 PM 32.9 °F 23.7 °F 25.3 °F 74% 29.96 in 10.0 mi South 12.7 mph - N/A   Clear
8:55 PM 32.4 °F 23.0 °F 25.2 °F 75% 29.96 in 10.0 mi SW 12.7 mph 19.6 mph N/A   Clear
9:15 PM 32.0 °F 23.0 °F 24.8 °F 75% 29.96 in 10.0 mi SW 11.5 mph - N/A   Clear
9:35 PM 31.1 °F 23.1 °F 24.6 °F 77% 29.96 in 10.0 mi SW 9.2 mph - N/A   Clear
9:55 PM 30.2 °F 21.3 °F 24.3 °F 79% 29.95 in 10.0 mi SSW 10.4 mph - N/A   Clear
10:15 PM 28.8 °F 20.9 °F 23.4 °F 80% 29.94 in 10.0 mi SSW 8.1 mph - N/A   Clear
10:35 PM 28.0 °F 21.7 °F 23.0 °F 81% 29.95 in 10.0 mi SSW 5.8 mph - N/A   Clear
10:55 PM 26.1 °F 18.4 °F 21.9 °F 84% 29.94 in 10.0 mi SW 6.9 mph - N/A   Clear
11:15 PM 27.3 °F 20.9 °F 22.3 °F 81% 29.94 in 10.0 mi SSW 5.8 mph - N/A   Clear
11:35 PM 26.2 °F 19.6 °F 21.9 °F 84% 29.94 in 10.0 mi SW 5.8 mph - N/A   Clear